Eglin Village, FL

3:03 PM CDT on May 24, 2017 (GMT -0500)
Eglin Air Force Base | | Change Station
Active Advisory: Coastal Hazard Statement Active Notice: Coastal Hazard Statement

Elev 85 ft 30.48 °N, 86.53 °W | Updated 7 minutes ago

Mostly Cloudy
Mostly Cloudy
81 °F
Feels Like 82 °F
N
17
Wind Variable Wind from WSW
Gusts 25 mph

Today
High -- | Low -- °F
--% Chance of Precip.
Yesterday
High -- | Low -- °F
Precip. -- in
Pressure 29.59 in
Visibility 10.0 miles
Clouds Scattered Clouds 4500 ft
Scattered Clouds 9000 ft
Mostly Cloudy 20000 ft
Heat Index 82 °F
Dew Point 64 °F
Humidity 56%
Rainfall 0.00 in
Snow Depth Not available.
5:46 AM 7:39 PM
Waning Crescent, 2% visible
METAR KVPS 241956Z 25015G22KT 10SM SCT045 SCT090 BKN200 27/18 A2957 RMK AO2A SLP019 T02710175 $
Pressure 29.59 in
Visibility 10.0 miles
Clouds Scattered Clouds 4500 ft
Scattered Clouds 9000 ft
Mostly Cloudy 20000 ft
Heat Index 82 °F
Dew Point 64 °F
Humidity 56%
Rainfall 0.00 in
Snow Depth Not available.
5:46 AM 7:39 PM
Waning Crescent, 2% visible
METAR KVPS 241956Z 25015G22KT 10SM SCT045 SCT090 BKN200 27/18 A2957 RMK AO2A SLP019 T02710175 $

Get Your Daily Forecast Email!

Thanks for signing up!

Be on the lookout for a verification email in your inbox.

You'll start receiving severe weather alerts in your inbox..

×

10-Day Weather Forecast

Almanac

Astronomy

May. 24, 2017 Rise Set
Actual Time
Civil Twilight
Nautical Twilight
Astronomical Twilight
Moon
Length of Visible Light
Length of Day
Tomorrow will be .
, % of the Moon is Illuminated

Today's Extremes

State Highs State Lows

Community

WunderPhotos

Category 6

Welcome to Category 6. This is the collective home for Weather Underground's featured writeups by Dr. Jeff Masters (right), Bob Henson (left), Chris Burt, and other regular contributors.

Nearby

Air Quality

  Air Quality AQ Index Pollutant
Not available.

Snow Depth

Station Depth Elevation

Earthquake Activity

City Distance Mag. Time & Date
Minimum magnitude displayed is 2.5.

Coastal Water Temperatures

Place Temperature

Stations

Nearby Weather Stations

Station Location Temp. Windchill Dew Point Humidity Wind Precip. Elev Updated Type
                   

Watches & Warnings

Coastal Hazard Statement
Issued: 12:17 PM CDT May. 24, 2017 – National Weather Service

... High rip current risk remains in effect until 7 PM CDT this
evening...

* surf... 2 to 5 feet.

* Timing... through early this evening.

* Impacts... frequent life-threatening rip currents are expected.
The surf is dangerous for all levels of swimmers.

Precautionary/preparedness actions...

There is a high risk of rip currents. Rip currents are life-
threatening to anyone entering the surf. Swim near a lifeguard.
If caught in a rip current remain calm. Don't fight the current.
Swim in a direction following the shoreline. If unable to escape,
face the shore and call or wave for help. If tired, float or
tread water until out of the rip current.